Marquez, Texas
Current Conditions -  °F | °C
As of 5:55 AM on Friday 19 Dec 2014 (Local Time) from KLXY Reporting Station
Moderate Rain Moderate Rain  
Wind Chill: 41°   Ceiling: 400
Heat Index: 46°   Visibility: 3mi
Dew Point: 46°   Wind: 13mph
Humidity: 97%   Direction: 360°N
Pressure: 30.09"   Gusts: 20mph
Location:  31.24°N, 96.25°W
Report Text: KLXY 191155Z AUTO 36011G17KT 3SM RA OVC004 08/08 A3009 RMK AO2 LTG DSNT SE AND W P0013 60032 70032 T00800076 10089 20080
Loading
Personal Weather Stations






























Interactive Weather Map New forecast layout! Learn more

10-Day Weather Forecast

Advertisements
Track Severe Weather on mobile